Time;durP1;ratioP1;P1;durP2;ratioP2;P2;SDS_P1;SDS_P2;PMS_P1;PMS_P2;Temp;Humidity;BMP_temperature;BMP_pressure;BME280_temperature;BME280_humidity;BME280_pressure;Samples;Min_cycle;Max_cycle;Signal;HPM_P1;HPM_P2
2022/04/10 00:00:03;;;;;;;10.95;2.53;;;3.50;99.90;;;;;;5093786;28;20215;-58
2022/04/10 00:02:30;;;;;;;9.95;3.25;;;3.40;99.90;;;;;;5093180;28;20204;-57
2022/04/10 00:04:57;;;;;;;6.25;2.63;;;3.40;99.90;;;;;;5094020;28;20200;-59
2022/04/10 00:07:24;;;;;;;8.85;2.75;;;3.30;99.90;;;;;;5093346;28;20196;-56
2022/04/10 00:09:51;;;;;;;10.35;3.28;;;3.30;99.90;;;;;;5093499;28;20201;-57
2022/04/10 00:12:18;;;;;;;4.68;3.08;;;3.20;99.90;;;;;;5093291;28;20215;-56
2022/04/10 00:14:45;;;;;;;4.35;2.35;;;3.20;99.90;;;;;;5093425;28;20212;-57
2022/04/10 00:17:14;;;;;;;5.95;2.53;;;3.20;99.90;;;;;;5093101;28;20243;-55
2022/04/10 00:19:43;;;;;;;3.40;1.88;;;3.20;99.90;;;;;;5093253;28;20208;-55
2022/04/10 00:22:10;;;;;;;6.05;2.70;;;3.20;99.90;;;;;;5093579;28;20286;-55
2022/04/10 00:24:37;;;;;;;4.35;3.00;;;3.20;99.90;;;;;;5094401;28;20200;-57
2022/04/10 00:27:05;;;;;;;11.55;3.15;;;3.10;99.90;;;;;;5097549;28;20591;-57
2022/04/10 00:29:32;;;;;;;5.05;2.40;;;3.10;99.90;;;;;;5097049;28;20200;-58
2022/04/10 00:32:00;;;;;;;3.08;2.40;;;3.10;99.90;;;;;;5097183;28;20207;-57
2022/04/10 00:34:28;;;;;;;6.05;2.25;;;3.10;99.90;;;;;;5097078;28;20645;-58
2022/04/10 00:36:55;;;;;;;5.47;2.80;;;3.10;99.90;;;;;;5097307;28;20224;-56
2022/04/10 00:39:22;;;;;;;6.72;2.80;;;3.10;99.90;;;;;;5097214;28;20676;-56
2022/04/10 00:41:49;;;;;;;3.40;2.35;;;3.00;99.90;;;;;;5097173;28;20200;-58
2022/04/10 00:44:17;;;;;;;6.38;2.40;;;2.90;99.90;;;;;;5097306;28;20196;-57
2022/04/10 00:46:44;;;;;;;2.85;2.00;;;2.90;99.90;;;;;;5097402;28;20216;-57
2022/04/10 00:49:11;;;;;;;3.22;1.52;;;2.80;99.90;;;;;;5098674;28;20204;-56
2022/04/10 00:51:43;;;;;;;6.55;2.35;;;2.90;99.90;;;;;;5101213;28;20205;-58
2022/04/10 00:54:12;;;;;;;5.63;2.80;;;2.90;99.90;;;;;;5103282;28;20209;-55
2022/04/10 00:56:40;;;;;;;4.20;2.25;;;2.90;99.90;;;;;;5098504;28;20219;-57
2022/04/10 00:59:07;;;;;;;5.72;2.50;;;2.90;99.90;;;;;;5098405;28;20211;-56
2022/04/10 01:01:35;;;;;;;4.78;2.20;;;2.80;99.90;;;;;;5098265;28;20204;-56
2022/04/10 01:04:03;;;;;;;3.20;1.92;;;2.80;99.90;;;;;;5098641;28;20207;-56
2022/04/10 01:06:31;;;;;;;10.93;2.53;;;2.80;99.90;;;;;;5104892;28;20595;-57
2022/04/10 01:09:00;;;;;;;5.80;3.03;;;2.80;99.90;;;;;;5106827;28;20208;-56
2022/04/10 01:11:27;;;;;;;9.95;2.85;;;2.80;99.90;;;;;;5105655;28;20204;-57
2022/04/10 01:13:55;;;;;;;5.05;2.45;;;2.80;99.90;;;;;;5106312;28;20208;-57
2022/04/10 01:16:22;;;;;;;5.85;2.60;;;2.80;99.90;;;;;;5106147;28;20711;-57
2022/04/10 01:18:51;;;;;;;7.38;2.80;;;2.70;99.90;;;;;;5106746;28;20200;-57
2022/04/10 01:21:24;;;;;;;7.50;2.97;;;2.70;99.90;;;;;;5105017;28;20200;-57
2022/04/10 01:23:53;;;;;;;7.65;2.67;;;2.60;99.90;;;;;;5104546;28;20210;-57
2022/04/10 01:26:20;;;;;;;5.88;2.75;;;2.60;99.90;;;;;;5102523;28;20616;-57
2022/04/10 01:28:58;;;;;;;5.63;2.35;;;2.50;99.90;;;;;;5102095;28;20197;-57
2022/04/10 01:31:25;;;;;;;4.47;2.75;;;2.50;99.90;;;;;;5100968;28;20253;-57
2022/04/10 01:33:54;;;;;;;5.18;2.70;;;2.50;99.90;;;;;;5101198;28;20204;-57
2022/04/10 01:36:22;;;;;;;8.82;3.58;;;2.50;99.90;;;;;;5102844;28;20247;-57
2022/04/10 01:38:52;;;;;;;8.50;2.67;;;2.50;99.90;;;;;;5103871;28;20196;-57
2022/04/10 01:41:20;;;;;;;5.50;2.85;;;2.50;99.90;;;;;;5104783;28;20211;-57
2022/04/10 01:43:48;;;;;;;4.75;3.20;;;2.50;99.90;;;;;;5104685;28;20201;-56
2022/04/10 01:46:15;;;;;;;5.30;2.60;;;2.50;99.90;;;;;;5101185;28;20232;-57
2022/04/10 01:48:43;;;;;;;12.35;3.35;;;2.40;99.90;;;;;;5101900;28;20207;-57
2022/04/10 01:51:10;;;;;;;4.63;2.30;;;2.40;99.90;;;;;;5102444;28;20200;-57
2022/04/10 01:53:37;;;;;;;7.47;3.13;;;2.40;99.90;;;;;;5102248;28;20207;-56
2022/04/10 01:56:06;;;;;;;5.22;2.88;;;2.40;99.90;;;;;;5101251;28;20598;-56
2022/04/10 01:58:37;;;;;;;6.03;2.70;;;2.40;99.90;;;;;;5101245;28;20211;-57
2022/04/10 02:01:05;;;;;;;7.72;2.55;;;2.50;99.90;;;;;;5100512;28;20196;-57
2022/04/10 02:03:32;;;;;;;6.85;3.05;;;2.60;99.90;;;;;;5099956;28;20200;-58
2022/04/10 02:06:01;;;;;;;8.60;3.20;;;2.60;99.90;;;;;;5099124;28;20216;-57
2022/04/10 02:08:28;;;;;;;9.88;2.80;;;2.70;99.90;;;;;;5098576;28;20227;-57
2022/04/10 02:10:56;;;;;;;7.38;2.92;;;2.80;99.90;;;;;;5098289;28;20216;-56
2022/04/10 02:13:23;;;;;;;7.10;2.90;;;2.80;99.90;;;;;;5096981;28;20208;-57
2022/04/10 02:15:52;;;;;;;6.68;3.15;;;2.90;99.90;;;;;;5096194;28;20228;-57
2022/04/10 02:18:19;;;;;;;5.07;3.00;;;2.90;99.90;;;;;;5096420;28;20208;-57
2022/04/10 02:20:46;;;;;;;6.50;2.45;;;2.90;99.90;;;;;;5096127;28;20570;-57
2022/04/10 02:23:13;;;;;;;11.98;3.20;;;3.00;99.90;;;;;;5096134;28;20236;-56
2022/04/10 02:25:40;;;;;;;6.03;2.53;;;3.00;99.90;;;;;;5095765;28;20223;-57
2022/04/10 02:28:07;;;;;;;5.00;2.55;;;3.00;99.90;;;;;;5095880;28;20201;-57
2022/04/10 02:30:34;;;;;;;6.63;3.13;;;3.00;99.90;;;;;;5096279;28;20200;-58
2022/04/10 02:33:03;;;;;;;7.82;3.60;;;3.00;99.90;;;;;;5096544;28;20208;-56
2022/04/10 02:35:30;;;;;;;3.97;2.60;;;3.00;99.90;;;;;;5095235;28;20235;-58
2022/04/10 02:37:57;;;;;;;8.55;3.20;;;2.90;99.90;;;;;;5095055;28;20282;-57
2022/04/10 02:40:24;;;;;;;10.50;4.03;;;2.90;99.90;;;;;;5095489;28;20286;-56
2022/04/10 02:42:51;;;;;;;7.53;3.22;;;2.80;99.90;;;;;;5095357;28;20204;-56
2022/04/10 02:45:18;;;;;;;9.13;3.42;;;2.80;99.90;;;;;;5095120;28;20217;-56
2022/04/10 02:47:45;;;;;;;10.25;3.70;;;2.70;99.90;;;;;;5094567;28;20200;-56
2022/04/10 02:50:14;;;;;;;6.00;3.30;;;2.70;99.90;;;;;;5094638;28;20207;-56
2022/04/10 02:52:41;;;;;;;4.45;2.95;;;2.70;99.90;;;;;;5095042;28;20208;-57
2022/04/10 02:55:09;;;;;;;3.90;2.72;;;2.70;99.90;;;;;;5095279;28;20904;-56
2022/04/10 02:57:36;;;;;;;4.85;3.88;;;2.70;99.90;;;;;;5095222;28;20255;-56
2022/04/10 03:00:05;;;;;;;6.32;2.33;;;2.70;99.90;;;;;;5095052;28;20208;-56
2022/04/10 03:02:32;;;;;;;5.30;3.63;;;2.80;99.90;;;;;;5095525;28;20224;-56
2022/04/10 03:04:59;;;;;;;6.18;2.50;;;2.80;99.90;;;;;;5095386;28;20200;-56
2022/04/10 03:07:28;;;;;;;8.20;2.83;;;2.80;99.90;;;;;;5094925;28;20668;-57
2022/04/10 03:09:55;;;;;;;5.95;2.72;;;2.80;99.90;;;;;;5094851;28;20574;-56
2022/04/10 03:12:22;;;;;;;5.05;2.45;;;2.80;99.90;;;;;;5094619;28;20209;-56
2022/04/10 03:14:49;;;;;;;7.63;2.85;;;2.80;99.90;;;;;;5094448;28;20227;-58
2022/04/10 03:17:16;;;;;;;10.10;3.88;;;2.80;99.90;;;;;;5094458;28;20219;-56
2022/04/10 03:19:43;;;;;;;7.13;2.60;;;2.80;99.90;;;;;;5094397;28;20201;-56
2022/04/10 03:22:10;;;;;;;7.20;3.20;;;2.80;99.90;;;;;;5094241;28;20205;-56
2022/04/10 03:24:39;;;;;;;10.02;2.70;;;2.80;99.90;;;;;;5094246;28;20206;-56
2022/04/10 03:27:06;;;;;;;14.88;3.58;;;2.70;99.90;;;;;;5093871;28;20734;-56
2022/04/10 03:29:33;;;;;;;4.80;3.45;;;2.70;99.90;;;;;;5094233;28;20207;-56
2022/04/10 03:32:00;;;;;;;4.85;2.78;;;2.60;99.90;;;;;;5094254;28;20208;-56
2022/04/10 03:34:27;;;;;;;6.75;2.75;;;2.50;99.90;;;;;;5093941;28;20214;-57
2022/04/10 03:36:54;;;;;;;7.40;3.40;;;2.50;99.90;;;;;;5093768;28;20228;-56
2022/04/10 03:39:22;;;;;;;11.40;2.92;;;2.50;99.90;;;;;;5093704;28;20204;-56
2022/04/10 03:41:50;;;;;;;6.15;2.90;;;2.40;99.90;;;;;;5093886;28;20235;-57
2022/04/10 03:44:17;;;;;;;6.95;2.95;;;2.40;99.90;;;;;;5094253;28;20204;-56
2022/04/10 03:46:44;;;;;;;6.70;2.60;;;2.40;99.90;;;;;;5093971;28;20227;-57
2022/04/10 03:49:11;;;;;;;9.57;3.03;;;2.30;99.90;;;;;;5093964;28;20668;-57
2022/04/10 03:51:38;;;;;;;7.32;3.20;;;2.40;99.90;;;;;;5093872;28;20204;-56
2022/04/10 03:54:06;;;;;;;9.13;3.70;;;2.30;99.90;;;;;;5094040;28;20200;-56
2022/04/10 03:56:33;;;;;;;8.57;3.22;;;2.30;99.90;;;;;;5093312;28;20224;-57
2022/04/10 03:59:01;;;;;;;8.65;3.20;;;2.30;99.90;;;;;;5093058;28;20205;-56
2022/04/10 04:01:28;;;;;;;4.82;2.75;;;2.30;99.90;;;;;;5093249;28;20196;-56
2022/04/10 04:03:55;;;;;;;8.52;2.92;;;2.30;99.90;;;;;;5093251;28;20196;-56
2022/04/10 04:09:35;;;;;;;12.48;3.55;;;2.30;99.90;;;;;;5111930;27;20540;-57
2022/04/10 04:12:02;;;;;;;8.65;3.35;;;2.30;99.90;;;;;;5111573;28;20203;-55
2022/04/10 04:14:30;;;;;;;9.88;3.83;;;2.20;99.90;;;;;;5111625;28;20227;-55
2022/04/10 04:16:57;;;;;;;12.25;3.50;;;2.20;99.90;;;;;;5110830;28;20220;-56
2022/04/10 04:19:24;;;;;;;10.65;2.47;;;2.20;99.90;;;;;;5111298;28;20199;-55
2022/04/10 04:21:51;;;;;;;8.38;3.42;;;2.20;99.90;;;;;;5113622;22;20229;-52
2022/04/10 04:24:18;;;;;;;7.65;3.30;;;2.20;99.90;;;;;;5050509;28;20212;-51
2022/04/10 04:26:46;;;;;;;12.85;3.40;;;2.20;99.90;;;;;;5050330;28;20206;-51
2022/04/10 04:29:13;;;;;;;6.68;3.20;;;2.20;99.90;;;;;;5049972;28;20229;-51
2022/04/10 04:31:40;;;;;;;5.10;2.72;;;2.20;99.90;;;;;;5049849;28;20222;-51
2022/04/10 04:34:11;;;;;;;6.75;3.55;;;2.30;99.90;;;;;;5050246;28;20213;-51
2022/04/10 04:36:39;;;;;;;7.55;3.38;;;2.30;99.90;;;;;;5049861;28;20753;-50
2022/04/10 04:39:06;;;;;;;7.68;3.75;;;2.30;99.90;;;;;;5050212;28;20226;-51
2022/04/10 04:41:33;;;;;;;7.18;2.92;;;2.40;99.90;;;;;;5049921;28;20225;-51
2022/04/10 04:44:01;;;;;;;20.77;3.55;;;2.40;99.90;;;;;;5049990;28;20198;-52
2022/04/10 04:46:28;;;;;;;12.15;3.72;;;2.40;99.90;;;;;;5050090;28;20217;-51
2022/04/10 04:48:55;;;;;;;12.13;3.80;;;2.40;99.90;;;;;;5049557;28;20225;-51
2022/04/10 04:51:22;;;;;;;11.77;3.30;;;2.40;99.90;;;;;;5049546;28;20228;-51
2022/04/10 04:53:49;;;;;;;8.70;3.00;;;2.40;99.90;;;;;;5049899;28;20209;-51
2022/04/10 04:56:16;;;;;;;9.00;3.30;;;2.40;99.90;;;;;;5049955;28;20217;-51
2022/04/10 04:58:44;;;;;;;12.77;3.30;;;2.40;99.90;;;;;;5049445;28;20585;-52
2022/04/10 05:01:12;;;;;;;10.65;3.10;;;2.40;99.90;;;;;;5049649;28;20230;-53
2022/04/10 05:03:39;;;;;;;7.65;3.40;;;2.40;99.90;;;;;;5049724;28;20202;-53
2022/04/10 05:06:06;;;;;;;5.18;2.70;;;2.40;99.90;;;;;;5049446;28;20682;-53
2022/04/10 05:08:33;;;;;;;9.90;3.25;;;2.40;99.90;;;;;;5049225;28;20217;-53
2022/04/10 05:11:01;;;;;;;6.30;3.28;;;2.40;99.90;;;;;;5049475;28;20221;-53
2022/04/10 05:13:28;;;;;;;5.60;2.10;;;2.50;99.90;;;;;;5049431;28;20208;-53
2022/04/10 05:15:55;;;;;;;19.55;3.92;;;2.60;99.90;;;;;;5049352;28;20229;-53
2022/04/10 05:18:24;;;;;;;7.28;2.90;;;2.60;99.90;;;;;;5049072;28;20201;-53
2022/04/10 05:20:51;;;;;;;7.82;2.95;;;2.70;99.90;;;;;;5036090;28;20582;-53
2022/04/10 05:23:18;;;;;;;11.73;3.47;;;2.80;99.90;;;;;;5035898;28;20198;-53
2022/04/10 05:25:45;;;;;;;7.55;2.80;;;2.80;99.90;;;;;;5035676;28;20206;-53
2022/04/10 05:28:12;;;;;;;11.13;3.28;;;2.80;99.90;;;;;;5036113;28;20567;-53
2022/04/10 05:30:39;;;;;;;12.23;3.17;;;2.90;99.90;;;;;;5035826;28;20202;-54
2022/04/10 05:33:07;;;;;;;9.38;3.20;;;2.90;99.90;;;;;;5035698;28;20211;-53
2022/04/10 05:35:36;;;;;;;7.78;3.30;;;2.90;99.90;;;;;;5035599;28;20748;-53
2022/04/10 05:38:03;;;;;;;8.13;2.95;;;3.00;99.90;;;;;;5036687;28;20195;-53
2022/04/10 05:40:30;;;;;;;9.88;3.58;;;3.00;99.90;;;;;;5035803;28;20202;-53
2022/04/10 05:42:57;;;;;;;9.23;3.13;;;3.10;99.90;;;;;;5035660;28;20203;-53
2022/04/10 05:45:25;;;;;;;9.57;3.08;;;3.10;99.90;;;;;;5035830;28;20616;-53
2022/04/10 05:47:52;;;;;;;5.03;2.75;;;3.10;99.90;;;;;;5035701;28;20574;-53
2022/04/10 05:50:19;;;;;;;9.13;3.58;;;3.10;99.90;;;;;;5035650;28;20210;-53
2022/04/10 05:52:50;;;;;;;13.50;3.78;;;3.10;99.90;;;;;;5035784;28;20348;-51
2022/04/10 05:55:18;;;;;;;8.27;3.45;;;3.10;99.90;;;;;;5036062;28;20195;-51
2022/04/10 05:57:46;;;;;;;4.13;2.88;;;3.10;99.90;;;;;;5035762;28;20211;-52
2022/04/10 06:00:16;;;;;;;5.57;3.65;;;3.10;99.90;;;;;;5035186;28;20218;-52
2022/04/10 06:02:43;;;;;;;6.00;2.53;;;3.20;99.90;;;;;;5035265;28;20245;-52
2022/04/10 06:05:11;;;;;;;7.90;3.95;;;3.30;99.90;;;;;;5035080;28;20583;-51
2022/04/10 06:07:38;;;;;;;11.75;3.33;;;3.40;99.90;;;;;;5034902;28;20209;-51
2022/04/10 06:10:07;;;;;;;8.23;3.30;;;3.50;99.90;;;;;;5035286;28;20226;-51
2022/04/10 06:12:34;;;;;;;13.43;2.95;;;3.60;99.90;;;;;;5035325;28;20218;-51
2022/04/10 06:15:02;;;;;;;8.38;3.20;;;3.60;99.90;;;;;;5034962;28;20678;-52
2022/04/10 06:18:08;;;;;;;7.30;2.80;;;3.70;99.90;;;;;;5035017;28;20210;-51
2022/04/10 06:20:35;;;;;;;8.70;3.17;;;3.80;99.90;;;;;;5034895;28;20253;-53
2022/04/10 06:23:03;;;;;;;8.68;3.58;;;3.90;99.90;;;;;;5034606;28;20211;-52
2022/04/10 06:25:31;;;;;;;6.20;2.65;;;3.90;99.90;;;;;;5034942;28;20210;-52
2022/04/10 06:27:58;;;;;;;11.75;3.20;;;4.00;99.90;;;;;;5034765;28;20213;-52
2022/04/10 06:30:25;;;;;;;16.10;2.95;;;4.10;99.90;;;;;;5034631;28;20547;-51
2022/04/10 06:32:52;;;;;;;12.63;4.03;;;4.10;99.90;;;;;;5034102;28;20227;-52
2022/04/10 06:35:19;;;;;;;8.27;4.03;;;4.20;99.90;;;;;;5034643;28;20207;-52
2022/04/10 06:37:46;;;;;;;11.38;3.30;;;4.30;99.90;;;;;;5034404;28;20206;-52
2022/04/10 06:40:14;;;;;;;10.73;3.22;;;4.40;99.90;;;;;;5034191;28;20209;-52
2022/04/10 06:42:42;;;;;;;8.63;3.40;;;4.40;99.90;;;;;;5034201;28;20229;-52
2022/04/10 06:45:10;;;;;;;7.07;2.90;;;4.30;99.90;;;;;;5034426;28;20204;-52
2022/04/10 06:47:37;;;;;;;4.78;3.13;;;4.30;99.90;;;;;;5034314;28;20203;-52
2022/04/10 06:50:04;;;;;;;12.18;2.75;;;4.30;99.90;;;;;;5034365;28;20245;-53
2022/04/10 06:52:31;;;;;;;8.27;2.72;;;4.30;99.90;;;;;;5034303;28;20226;-53
2022/04/10 06:54:58;;;;;;;8.32;3.17;;;4.40;99.90;;;;;;5034434;28;20206;-53
2022/04/10 06:57:25;;;;;;;5.93;1.95;;;4.40;99.90;;;;;;5033883;28;20667;-53
2022/04/10 06:59:54;;;;;;;6.20;3.15;;;4.60;99.90;;;;;;5034223;28;20195;-53
2022/04/10 07:02:21;;;;;;;11.48;3.55;;;4.60;99.90;;;;;;5034075;28;20244;-53
2022/04/10 07:04:49;;;;;;;6.05;2.55;;;4.70;99.90;;;;;;5034749;28;20202;-53
2022/04/10 07:07:16;;;;;;;7.00;3.55;;;4.80;99.90;;;;;;5033934;28;20207;-53
2022/04/10 07:09:43;;;;;;;11.80;3.72;;;4.80;99.90;;;;;;5034024;28;20214;-54
2022/04/10 07:12:11;;;;;;;8.63;2.80;;;4.80;99.90;;;;;;5034653;28;20386;-53
2022/04/10 07:14:38;;;;;;;8.25;4.15;;;4.90;99.90;;;;;;5034022;28;20552;-53
2022/04/10 07:17:06;;;;;;;5.20;2.65;;;4.90;99.90;;;;;;5034034;28;20205;-54
2022/04/10 07:19:33;;;;;;;7.88;2.95;;;5.00;99.90;;;;;;5034286;28;20568;-53
2022/04/10 07:24:44;;;;;;;10.02;3.47;;;5.20;99.90;;;;;;5034341;28;20261;-53
2022/04/10 07:27:12;;;;;;;6.45;2.47;;;5.30;99.90;;;;;;5034990;28;20206;-53
2022/04/10 07:29:39;;;;;;;5.95;3.83;;;5.40;99.90;;;;;;5033975;28;20710;-52
2022/04/10 07:32:08;;;;;;;14.20;3.33;;;5.50;99.90;;;;;;5034894;28;20229;-52
2022/04/10 07:34:35;;;;;;;3.88;2.67;;;5.50;99.90;;;;;;5034046;28;20213;-52
2022/04/10 07:37:02;;;;;;;6.35;2.63;;;5.60;99.90;;;;;;5034312;28;20202;-53
2022/04/10 07:39:30;;;;;;;11.07;3.45;;;5.60;99.90;;;;;;5033955;28;20206;-53
2022/04/10 07:41:57;;;;;;;9.35;2.42;;;5.70;99.90;;;;;;5033490;28;20225;-54
2022/04/10 07:44:24;;;;;;;10.57;3.65;;;5.80;99.90;;;;;;5033523;28;20202;-53
2022/04/10 07:49:37;;;;;;;14.43;3.30;;;5.90;99.90;;;;;;5033264;28;20293;-53
2022/04/10 07:52:04;;;;;;;7.53;3.20;;;5.90;99.90;;;;;;5033562;28;20226;-55
2022/04/10 07:54:31;;;;;;;3.92;2.25;;;6.00;99.90;;;;;;5033250;28;20198;-53
2022/04/10 07:56:59;;;;;;;8.85;3.05;;;6.00;99.90;;;;;;5033127;28;20202;-54
2022/04/10 07:59:26;;;;;;;5.90;1.90;;;5.90;99.70;;;;;;5033435;28;20207;-54
2022/04/10 08:01:53;;;;;;;8.02;2.60;;;5.90;99.90;;;;;;5033055;28;20312;-54
2022/04/10 08:04:20;;;;;;;6.40;2.33;;;6.00;99.60;;;;;;5033381;28;20218;-52
2022/04/10 08:06:48;;;;;;;7.75;2.65;;;6.10;99.70;;;;;;5034459;28;20567;-52
2022/04/10 08:09:15;;;;;;;5.05;3.05;;;6.20;98.80;;;;;;5033214;28;20225;-55
2022/04/10 08:11:42;;;;;;;11.88;3.00;;;6.20;98.10;;;;;;5032966;28;20218;-55
2022/04/10 08:14:09;;;;;;;6.28;2.15;;;6.30;98.20;;;;;;5032948;28;20206;-54
2022/04/10 08:16:36;;;;;;;3.83;1.95;;;6.30;98.10;;;;;;5033031;28;20202;-52
2022/04/10 08:19:04;;;;;;;5.18;2.63;;;6.40;98.00;;;;;;5032998;28;20206;-54
2022/04/10 08:21:31;;;;;;;3.97;2.20;;;6.50;97.60;;;;;;5032877;28;20659;-54
2022/04/10 08:23:59;;;;;;;6.85;2.63;;;6.50;97.30;;;;;;5032770;28;20206;-55
2022/04/10 08:26:26;;;;;;;9.32;2.47;;;6.50;97.40;;;;;;5032648;28;20697;-54
2022/04/10 08:28:53;;;;;;;6.28;2.70;;;6.50;97.10;;;;;;5032985;28;20226;-55
2022/04/10 08:31:20;;;;;;;5.00;2.25;;;6.60;97.20;;;;;;5032995;28;20233;-55
2022/04/10 08:33:47;;;;;;;3.83;2.05;;;6.80;96.60;;;;;;5032829;28;20206;-55
2022/04/10 08:36:14;;;;;;;5.45;2.10;;;7.00;95.40;;;;;;5032490;28;20206;-55
2022/04/10 08:38:41;;;;;;;5.13;1.92;;;7.20;94.40;;;;;;5033178;28;20218;-55
2022/04/10 08:41:11;;;;;;;5.97;2.05;;;7.30;94.10;;;;;;5033218;28;20246;-54
2022/04/10 08:43:39;;;;;;;2.60;2.15;;;7.30;93.00;;;;;;5033265;28;20643;-55
2022/04/10 08:46:07;;;;;;;4.40;1.98;;;7.20;93.40;;;;;;5032933;28;20210;-54
2022/04/10 08:48:37;;;;;;;4.43;1.80;;;7.20;93.50;;;;;;5032859;28;20694;-54
2022/04/10 08:51:06;;;;;;;4.88;2.10;;;7.10;93.10;;;;;;5032969;28;20218;-54
2022/04/10 08:53:33;;;;;;;5.60;2.30;;;7.10;93.40;;;;;;5032551;28;20198;-55
2022/04/10 08:56:01;;;;;;;6.55;2.00;;;7.20;93.70;;;;;;5035593;28;20213;-53
2022/04/10 08:58:31;;;;;;;5.07;1.98;;;7.30;93.50;;;;;;5036491;28;20202;-54
2022/04/10 09:00:58;;;;;;;3.35;1.88;;;7.50;93.20;;;;;;5036262;28;20224;-56
2022/04/10 09:03:25;;;;;;;4.10;2.10;;;7.70;91.70;;;;;;5036533;28;20209;-54
2022/04/10 09:06:03;;;;;;;3.10;1.88;;;7.80;91.20;;;;;;5035973;28;20210;-56
2022/04/10 09:08:30;;;;;;;4.30;2.50;;;7.80;90.50;;;;;;5036221;28;20203;-55
2022/04/10 09:11:00;;;;;;;5.28;2.00;;;7.70;90.00;;;;;;5036059;28;20230;-54
2022/04/10 09:13:30;;;;;;;3.58;1.70;;;7.50;90.30;;;;;;5035737;28;20209;-53
2022/04/10 09:16:13;;;;;;;5.40;2.20;;;7.30;90.90;;;;;;5036548;28;20194;-55
2022/04/10 09:18:55;;;;;;;4.90;2.67;;;7.20;91.80;;;;;;5035823;28;20253;-55
2022/04/10 09:21:25;;;;;;;5.65;2.17;;;7.00;92.30;;;;;;5035792;28;20234;-55
2022/04/10 09:23:59;;;;;;;3.40;1.75;;;6.80;91.10;;;;;;5035696;28;20674;-55
2022/04/10 09:26:27;;;;;;;2.92;2.20;;;6.60;91.70;;;;;;5035612;28;20553;-55
2022/04/10 09:28:56;;;;;;;7.07;2.30;;;6.70;92.20;;;;;;5035644;28;20211;-55
2022/04/10 09:31:33;;;;;;;3.03;2.22;;;7.00;92.10;;;;;;5035635;28;20241;-55
2022/04/10 09:34:02;;;;;;;4.38;2.65;;;7.40;91.50;;;;;;5035940;28;20187;-55
2022/04/10 09:36:37;;;;;;;5.45;2.00;;;7.70;90.10;;;;;;5035688;28;20217;-55
2022/04/10 09:39:07;;;;;;;6.00;2.28;;;7.90;87.50;;;;;;5035537;28;20594;-56
2022/04/10 09:41:34;;;;;;;3.45;1.75;;;8.00;85.00;;;;;;5035767;28;20222;-55
2022/04/10 09:44:12;;;;;;;5.28;2.20;;;8.10;83.20;;;;;;5035276;28;20651;-56
2022/04/10 09:46:40;;;;;;;6.38;2.15;;;8.20;80.00;;;;;;5035648;28;20182;-54
2022/04/10 09:49:14;;;;;;;3.65;1.90;;;8.40;78.50;;;;;;5035554;28;20206;-55
2022/04/10 09:51:59;;;;;;;3.78;1.70;;;8.60;77.10;;;;;;5035479;28;20261;-55
2022/04/10 09:54:26;;;;;;;4.32;2.03;;;8.90;71.30;;;;;;5035395;28;20190;-54
2022/04/10 09:56:55;;;;;;;2.13;1.38;;;8.90;68.30;;;;;;5034951;28;20252;-55
2022/04/10 09:59:28;;;;;;;5.85;1.90;;;8.80;68.20;;;;;;5034900;28;20406;-54
2022/04/10 10:01:57;;;;;;;2.75;1.65;;;8.70;67.80;;;;;;5035599;28;20227;-55
2022/04/10 10:04:24;;;;;;;3.67;2.45;;;8.70;67.50;;;;;;5034789;28;20213;-54
2022/04/10 10:06:51;;;;;;;4.85;1.73;;;8.60;66.40;;;;;;5034549;28;20198;-53
2022/04/10 10:09:20;;;;;;;7.57;1.88;;;8.50;65.10;;;;;;5035012;28;20225;-55
2022/04/10 10:11:48;;;;;;;4.93;2.10;;;8.60;65.00;;;;;;5034791;28;20222;-55
2022/04/10 10:14:17;;;;;;;5.95;2.20;;;8.50;65.30;;;;;;5034506;28;20238;-54
2022/04/10 10:16:46;;;;;;;9.23;2.00;;;8.50;66.60;;;;;;5034679;28;20671;-54
2022/04/10 10:19:14;;;;;;;3.90;1.70;;;8.40;66.20;;;;;;5034808;28;20209;-55
2022/04/10 10:21:41;;;;;;;4.13;2.10;;;8.20;67.00;;;;;;5034867;28;20234;-55
2022/04/10 10:26:51;;;;;;;2.70;1.92;;;8.30;66.90;;;;;;5058556;22;20694;-56
2022/04/10 10:29:36;;;;;;;6.70;2.08;;;8.30;64.40;;;;;;5034930;28;20205;-55
2022/04/10 10:32:13;;;;;;;6.18;2.00;;;8.40;63.40;;;;;;5034965;28;20189;-55
2022/04/10 10:34:42;;;;;;;4.32;1.70;;;8.40;63.10;;;;;;5034931;28;20218;-55
2022/04/10 10:37:10;;;;;;;2.85;1.35;;;8.40;63.70;;;;;;5034567;28;20244;-56
2022/04/10 10:39:46;;;;;;;6.75;2.10;;;8.40;64.10;;;;;;5034903;28;20211;-56
2022/04/10 10:42:13;;;;;;;3.78;1.70;;;8.50;65.10;;;;;;5035048;28;20186;-54
2022/04/10 10:44:48;;;;;;;5.63;1.70;;;8.70;64.40;;;;;;5034506;28;20225;-56
2022/04/10 10:47:26;;;;;;;3.38;1.60;;;8.90;62.80;;;;;;5034962;28;20186;-56
2022/04/10 10:49:54;;;;;;;1.92;1.63;;;9.00;61.90;;;;;;5034313;28;20229;-55
2022/04/10 10:52:23;;;;;;;3.67;1.65;;;9.20;60.10;;;;;;5034461;28;20571;-55
2022/04/10 10:54:55;;;;;;;7.88;2.00;;;9.20;60.10;;;;;;5034317;28;20309;-55
2022/04/10 10:57:31;;;;;;;3.90;1.60;;;9.30;59.90;;;;;;5034539;28;20202;-56
2022/04/10 11:00:14;;;;;;;6.87;1.53;;;9.40;59.40;;;;;;5034538;28;20658;-55
2022/04/10 11:02:49;;;;;;;4.03;1.70;;;9.40;59.20;;;;;;5034429;28;20432;-57
2022/04/10 11:05:32;;;;;;;6.13;2.05;;;9.50;60.00;;;;;;5034346;28;20222;-56
2022/04/10 11:08:02;;;;;;;4.40;1.93;;;9.40;60.40;;;;;;5034759;28;20277;-55
2022/04/10 11:10:30;;;;;;;5.18;2.03;;;9.40;61.70;;;;;;5034808;28;20552;-54
2022/04/10 11:13:02;;;;;;;4.57;2.00;;;9.50;61.60;;;;;;5035379;28;20591;-55
2022/04/10 11:15:34;;;;;;;9.65;1.98;;;9.60;61.80;;;;;;5036225;28;20234;-55
2022/04/10 11:18:31;;;;;;;5.03;2.45;;;9.70;61.40;;;;;;5035485;28;20213;-55
2022/04/10 11:21:06;;;;;;;6.73;2.20;;;9.80;61.40;;;;;;5035452;28;20363;-56
2022/04/10 11:23:39;;;;;;;4.13;2.20;;;9.90;61.90;;;;;;5037957;28;20429;-55
2022/04/10 11:26:12;;;;;;;5.03;1.73;;;10.10;61.20;;;;;;5038156;28;20530;-56
2022/04/10 11:28:55;;;;;;;4.90;1.70;;;10.10;61.10;;;;;;5037323;28;20425;-55
2022/04/10 11:31:36;;;;;;;4.63;2.10;;;10.00;59.70;;;;;;5035358;28;20491;-54
2022/04/10 11:34:12;;;;;;;4.70;1.37;;;10.00;61.10;;;;;;5035065;28;20433;-56
2022/04/10 11:36:53;;;;;;;1.70;1.00;;;10.00;60.70;;;;;;5034475;28;20495;-56
2022/04/10 11:39:25;;;;;;;1.47;0.90;;;9.90;62.20;;;;;;5035050;28;20440;-56
2022/04/10 11:41:53;;;;;;;3.67;1.40;;;9.80;62.70;;;;;;5035230;28;20455;-56
2022/04/10 11:44:20;;;;;;;1.30;1.00;;;9.80;64.50;;;;;;5034392;28;20945;-56
2022/04/10 11:46:49;;;;;;;2.33;1.00;;;9.80;63.10;;;;;;5034739;28;20453;-57
2022/04/10 11:49:20;;;;;;;4.28;1.75;;;9.70;62.20;;;;;;5034883;28;20456;-56
2022/04/10 11:51:54;;;;;;;4.50;2.43;;;9.40;62.90;;;;;;5034164;28;20225;-56
2022/04/10 11:54:26;;;;;;;3.00;1.33;;;9.20;63.30;;;;;;5033645;28;20967;-55
2022/04/10 11:56:53;;;;;;;1.92;1.30;;;9.10;63.80;;;;;;5033829;28;20213;-55
2022/04/10 11:59:21;;;;;;;2.97;1.00;;;9.00;64.20;;;;;;5033602;28;20230;-56
2022/04/10 12:01:50;;;;;;;5.20;1.90;;;8.90;65.20;;;;;;5033439;28;20253;-58
2022/04/10 12:04:20;;;;;;;3.35;1.35;;;8.70;66.90;;;;;;5033511;28;20210;-54
2022/04/10 12:06:48;;;;;;;3.83;1.70;;;8.50;70.50;;;;;;5033840;28;20182;-55
2022/04/10 12:09:15;;;;;;;3.67;1.92;;;8.20;76.50;;;;;;5034273;28;20198;-56
2022/04/10 12:11:43;;;;;;;2.30;1.30;;;8.10;81.90;;;;;;5033235;28;20218;-56
2022/04/10 12:14:22;;;;;;;4.03;1.73;;;7.90;84.70;;;;;;5033339;28;20209;-55
2022/04/10 12:16:51;;;;;;;4.28;1.80;;;7.70;90.00;;;;;;5033270;28;20199;-56
2022/04/10 12:19:30;;;;;;;4.35;1.83;;;7.40;93.00;;;;;;5033961;28;20576;-55
2022/04/10 12:21:57;;;;;;;3.72;2.03;;;7.30;94.30;;;;;;5033848;28;20178;-55
2022/04/10 12:24:24;;;;;;;2.55;1.55;;;7.30;94.80;;;;;;5033724;28;20206;-54
2022/04/10 12:26:58;;;;;;;5.40;2.03;;;7.30;95.00;;;;;;5035958;28;20218;-54
2022/04/10 12:29:28;;;;;;;2.60;1.90;;;7.40;94.90;;;;;;5033987;28;20181;-55
2022/04/10 12:31:56;;;;;;;4.30;1.83;;;7.50;94.70;;;;;;5045203;28;20682;-55
2022/04/10 12:34:32;;;;;;;3.85;1.80;;;7.60;93.30;;;;;;5036777;28;20606;-55
2022/04/10 12:37:07;;;;;;;3.10;1.88;;;7.80;93.10;;;;;;5037894;28;20192;-56
2022/04/10 12:39:34;;;;;;;2.90;1.98;;;8.00;91.90;;;;;;5037578;28;20186;-56
2022/04/10 12:42:03;;;;;;;2.90;1.50;;;8.20;90.50;;;;;;5037053;28;20198;-56
2022/04/10 12:44:31;;;;;;;2.72;1.90;;;8.30;89.50;;;;;;5036772;28;20693;-58
2022/04/10 12:46:58;;;;;;;6.00;1.73;;;8.40;88.00;;;;;;5037145;28;20201;-55
2022/04/10 12:49:26;;;;;;;1.55;1.45;;;8.60;86.90;;;;;;5037611;28;20199;-55
2022/04/10 12:51:55;;;;;;;3.05;1.58;;;8.90;84.60;;;;;;5036797;28;20265;-56
2022/04/10 12:54:39;;;;;;;3.28;1.58;;;9.10;80.70;;;;;;5036507;28;20206;-56
2022/04/10 12:57:07;;;;;;;4.35;1.70;;;9.20;78.20;;;;;;5042543;28;20258;-55
2022/04/10 12:59:42;;;;;;;3.38;1.80;;;9.30;77.70;;;;;;5036875;28;20202;-57
2022/04/10 13:02:11;;;;;;;4.35;1.80;;;9.30;76.80;;;;;;5036745;28;20178;-55
2022/04/10 13:04:39;;;;;;;2.97;1.50;;;9.20;71.50;;;;;;5036518;28;20254;-56
2022/04/10 13:07:17;;;;;;;2.70;1.33;;;9.00;69.80;;;;;;5036271;28;20210;-56
2022/04/10 13:09:49;;;;;;;10.93;2.63;;;8.90;68.40;;;;;;5036846;28;20187;-56
2022/04/10 13:12:23;;;;;;;6.28;1.80;;;8.80;67.10;;;;;;5036376;28;20246;-57
2022/04/10 13:14:51;;;;;;;2.20;1.50;;;8.70;67.00;;;;;;5036828;28;20261;-55